sensor_id;sensor_type;location;lat;lon;timestamp;pressure;altitude;pressure_sealevel;temperature;humidity
78313;BME280;67568;47.438;21.408;2023-02-22T00:00:17;100405.22;;;6.57;75.59
78313;BME280;67568;47.438;21.408;2023-02-22T00:02:49;100410.16;;;6.45;76.36
78313;BME280;67568;47.438;21.408;2023-02-22T00:05:17;100396.91;;;6.31;77.68
78313;BME280;67568;47.438;21.408;2023-02-22T00:07:48;100413.44;;;6.26;76.58
78313;BME280;67568;47.438;21.408;2023-02-22T00:10:16;100419.47;;;6.28;76.47
78313;BME280;67568;47.438;21.408;2023-02-22T00:12:42;100412.59;;;6.26;76.92
78313;BME280;67568;47.438;21.408;2023-02-22T00:15:09;100412.88;;;6.24;75.70
78313;BME280;67568;47.438;21.408;2023-02-22T00:17:36;100424.38;;;6.06;76.09
78313;BME280;67568;47.438;21.408;2023-02-22T00:20:03;100426.31;;;6.05;76.72
78313;BME280;67568;47.438;21.408;2023-02-22T00:22:29;100428.19;;;5.95;77.01
78313;BME280;67568;47.438;21.408;2023-02-22T00:24:56;100432.53;;;5.85;77.02
78313;BME280;67568;47.438;21.408;2023-02-22T00:27:23;100434.44;;;5.85;76.81
78313;BME280;67568;47.438;21.408;2023-02-22T00:29:50;100425.88;;;5.71;77.10
78313;BME280;67568;47.438;21.408;2023-02-22T00:32:16;100435.53;;;5.79;77.43
78313;BME280;67568;47.438;21.408;2023-02-22T00:34:43;100434.38;;;5.75;76.85
78313;BME280;67568;47.438;21.408;2023-02-22T00:37:10;100428.09;;;5.79;77.29
78313;BME280;67568;47.438;21.408;2023-02-22T00:39:36;100426.47;;;5.89;76.12
78313;BME280;67568;47.438;21.408;2023-02-22T00:42:03;100435.88;;;5.93;76.50
78313;BME280;67568;47.438;21.408;2023-02-22T00:44:30;100441.91;;;5.90;76.07
78313;BME280;67568;47.438;21.408;2023-02-22T00:46:56;100444.66;;;5.90;76.30
78313;BME280;67568;47.438;21.408;2023-02-22T00:49:23;100444.91;;;5.88;76.78
78313;BME280;67568;47.438;21.408;2023-02-22T00:51:50;100445.84;;;6.04;76.62
78313;BME280;67568;47.438;21.408;2023-02-22T00:54:16;100439.69;;;5.92;76.40
78313;BME280;67568;47.438;21.408;2023-02-22T00:56:43;100441.91;;;5.90;76.80
78313;BME280;67568;47.438;21.408;2023-02-22T00:59:09;100448.78;;;5.92;76.03
78313;BME280;67568;47.438;21.408;2023-02-22T01:01:36;100447.94;;;5.92;75.32
78313;BME280;67568;47.438;21.408;2023-02-22T01:04:03;100445.19;;;5.92;75.91
78313;BME280;67568;47.438;21.408;2023-02-22T01:06:30;100449.28;;;5.79;75.52
78313;BME280;67568;47.438;21.408;2023-02-22T01:08:57;100449.84;;;5.81;75.61
78313;BME280;67568;47.438;21.408;2023-02-22T01:11:23;100458.81;;;5.66;76.27
78313;BME280;67568;47.438;21.408;2023-02-22T01:13:50;100472.31;;;5.68;75.85
78313;BME280;67568;47.438;21.408;2023-02-22T01:16:19;100474.19;;;5.62;76.66
78313;BME280;67568;47.438;21.408;2023-02-22T01:18:46;100468.41;;;5.58;77.46
78313;BME280;67568;47.438;21.408;2023-02-22T01:21:13;100472.25;;;5.57;77.21
78313;BME280;67568;47.438;21.408;2023-02-22T01:23:41;100471.69;;;5.55;77.08
78313;BME280;67568;47.438;21.408;2023-02-22T01:26:09;100466.75;;;5.57;77.83
78313;BME280;67568;47.438;21.408;2023-02-22T01:28:36;100472.00;;;5.59;77.20
78313;BME280;67568;47.438;21.408;2023-02-22T01:31:03;100462.59;;;5.50;77.21
78313;BME280;67568;47.438;21.408;2023-02-22T01:33:30;100460.97;;;5.54;76.52
78313;BME280;67568;47.438;21.408;2023-02-22T01:35:57;100473.00;;;5.48;77.39
78313;BME280;67568;47.438;21.408;2023-02-22T01:38:24;100478.16;;;5.34;77.64
78313;BME280;67568;47.438;21.408;2023-02-22T01:40:51;100469.66;;;5.35;77.47
78313;BME280;67568;47.438;21.408;2023-02-22T01:43:24;100475.19;;;5.46;77.66
78313;BME280;67568;47.438;21.408;2023-02-22T01:46:18;100483.72;;;5.49;77.25
78313;BME280;67568;47.438;21.408;2023-02-22T01:48:57;100478.81;;;5.51;76.80
78313;BME280;67568;47.438;21.408;2023-02-22T01:51:38;100480.72;;;5.51;77.10
78313;BME280;67568;47.438;21.408;2023-02-22T01:56:45;100492.28;;;5.53;77.11
78313;BME280;67568;47.438;21.408;2023-02-22T01:59:13;100477.16;;;5.50;78.03
78313;BME280;67568;47.438;21.408;2023-02-22T02:01:41;100479.38;;;5.53;77.10
78313;BME280;67568;47.438;21.408;2023-02-22T02:04:14;100487.09;;;5.56;76.89
78313;BME280;67568;47.438;21.408;2023-02-22T02:06:41;100489.59;;;5.58;77.56
78313;BME280;67568;47.438;21.408;2023-02-22T02:09:18;100486.19;;;5.46;77.58
78313;BME280;67568;47.438;21.408;2023-02-22T02:11:48;100482.38;;;5.47;77.71
78313;BME280;67568;47.438;21.408;2023-02-22T02:14:15;100482.03;;;5.43;77.60
78313;BME280;67568;47.438;21.408;2023-02-22T02:16:48;100478.50;;;5.48;78.02
78313;BME280;67568;47.438;21.408;2023-02-22T02:33:49;100487.63;;;5.53;77.38
78313;BME280;67568;47.438;21.408;2023-02-22T02:36:37;100481.31;;;5.53;76.86
78313;BME280;67568;47.438;21.408;2023-02-22T02:41:48;100495.00;;;5.48;77.12
78313;BME280;67568;47.438;21.408;2023-02-22T02:47:00;100496.13;;;5.52;78.19
78313;BME280;67568;47.438;21.408;2023-02-22T02:49:36;100498.00;;;5.46;78.80
78313;BME280;67568;47.438;21.408;2023-02-22T02:52:05;100504.69;;;5.60;78.65
78313;BME280;67568;47.438;21.408;2023-02-22T02:54:37;100508.06;;;5.73;78.54
78313;BME280;67568;47.438;21.408;2023-02-22T02:57:04;100507.91;;;5.90;78.40
78313;BME280;67568;47.438;21.408;2023-02-22T02:59:34;100515.56;;;5.88;77.73
78313;BME280;67568;47.438;21.408;2023-02-22T03:11:06;100524.78;;;6.03;76.03
78313;BME280;67568;47.438;21.408;2023-02-22T03:16:16;100518.44;;;6.03;75.59
78313;BME280;67568;47.438;21.408;2023-02-22T03:19:06;100522.03;;;6.03;75.60
78313;BME280;67568;47.438;21.408;2023-02-22T03:24:36;100523.88;;;5.93;75.98
78313;BME280;67568;47.438;21.408;2023-02-22T03:27:08;100528.78;;;5.91;75.10
78313;BME280;67568;47.438;21.408;2023-02-22T03:29:41;100532.38;;;5.91;75.09
78313;BME280;67568;47.438;21.408;2023-02-22T03:32:14;100530.44;;;5.92;75.70
78313;BME280;67568;47.438;21.408;2023-02-22T03:34:45;100531.78;;;5.84;75.84
78313;BME280;67568;47.438;21.408;2023-02-22T03:37:16;100534.78;;;5.82;75.72
78313;BME280;67568;47.438;21.408;2023-02-22T03:39:45;100538.31;;;5.73;75.47
78313;BME280;67568;47.438;21.408;2023-02-22T03:42:29;100546.03;;;5.76;74.95
78313;BME280;67568;47.438;21.408;2023-02-22T03:44:59;100550.91;;;5.69;75.55
78313;BME280;67568;47.438;21.408;2023-02-22T03:47:32;100552.28;;;5.66;76.08
78313;BME280;67568;47.438;21.408;2023-02-22T03:50:05;100556.66;;;5.62;75.62
78313;BME280;67568;47.438;21.408;2023-02-22T03:52:35;100559.97;;;5.64;75.75
78313;BME280;67568;47.438;21.408;2023-02-22T03:55:03;100545.63;;;5.57;75.07
78313;BME280;67568;47.438;21.408;2023-02-22T03:57:36;100547.22;;;5.48;76.06
78313;BME280;67568;47.438;21.408;2023-02-22T04:00:10;100550.44;;;5.39;76.20
78313;BME280;67568;47.438;21.408;2023-02-22T04:02:37;100547.09;;;5.32;75.69
78313;BME280;67568;47.438;21.408;2023-02-22T04:05:04;100550.97;;;5.36;75.49
78313;BME280;67568;47.438;21.408;2023-02-22T04:07:31;100549.88;;;5.37;75.08
78313;BME280;67568;47.438;21.408;2023-02-22T04:09:58;100556.41;;;5.31;76.22
78313;BME280;67568;47.438;21.408;2023-02-22T04:12:25;100559.44;;;5.30;75.80
78313;BME280;67568;47.438;21.408;2023-02-22T04:14:51;100562.66;;;5.22;75.77
78313;BME280;67568;47.438;21.408;2023-02-22T04:17:18;100556.88;;;5.18;76.16
78313;BME280;67568;47.438;21.408;2023-02-22T04:19:45;100560.69;;;5.17;76.02
78313;BME280;67568;47.438;21.408;2023-02-22T04:22:12;100568.34;;;5.10;76.20
78313;BME280;67568;47.438;21.408;2023-02-22T04:24:38;100561.50;;;5.17;75.18
78313;BME280;67568;47.438;21.408;2023-02-22T04:27:05;100552.09;;;5.08;75.71
78313;BME280;67568;47.438;21.408;2023-02-22T04:29:32;100564.72;;;5.04;75.78
78313;BME280;67568;47.438;21.408;2023-02-22T04:31:58;100564.97;;;5.03;75.89
78313;BME280;67568;47.438;21.408;2023-02-22T04:34:25;100568.50;;;4.98;76.25
78313;BME280;67568;47.438;21.408;2023-02-22T04:36:51;100577.38;;;4.83;76.43
78313;BME280;67568;47.438;21.408;2023-02-22T04:39:18;100566.97;;;4.85;76.59
78313;BME280;67568;47.438;21.408;2023-02-22T04:41:48;100570.84;;;4.89;76.30
78313;BME280;67568;47.438;21.408;2023-02-22T04:44:15;100572.47;;;4.85;76.10
78313;BME280;67568;47.438;21.408;2023-02-22T04:46:41;100565.78;;;4.76;76.83
78313;BME280;67568;47.438;21.408;2023-02-22T04:49:08;100563.13;;;4.81;76.78
78313;BME280;67568;47.438;21.408;2023-02-22T04:51:35;100554.81;;;4.76;76.48
78313;BME280;67568;47.438;21.408;2023-02-22T04:54:02;100560.19;;;4.66;76.66
78313;BME280;67568;47.438;21.408;2023-02-22T04:56:29;100564.78;;;4.60;77.05
78313;BME280;67568;47.438;21.408;2023-02-22T04:58:55;100557.91;;;4.58;77.12
78313;BME280;67568;47.438;21.408;2023-02-22T05:01:22;100571.94;;;4.61;76.68
78313;BME280;67568;47.438;21.408;2023-02-22T05:03:48;100568.47;;;4.71;76.35
78313;BME280;67568;47.438;21.408;2023-02-22T05:06:16;100578.31;;;4.67;76.67
78313;BME280;67568;47.438;21.408;2023-02-22T05:08:43;100578.00;;;4.63;76.38
78313;BME280;67568;47.438;21.408;2023-02-22T05:11:10;100576.06;;;4.64;76.29
78313;BME280;67568;47.438;21.408;2023-02-22T05:13:37;100582.06;;;4.61;76.43
78313;BME280;67568;47.438;21.408;2023-02-22T05:16:04;100589.78;;;4.64;76.27
78313;BME280;67568;47.438;21.408;2023-02-22T05:18:31;100584.31;;;4.64;75.74
78313;BME280;67568;47.438;21.408;2023-02-22T05:20:57;100579.34;;;4.61;75.51
78313;BME280;67568;47.438;21.408;2023-02-22T05:23:24;100580.94;;;4.57;75.72
78313;BME280;67568;47.438;21.408;2023-02-22T05:25:51;100575.69;;;4.55;75.08
78313;BME280;67568;47.438;21.408;2023-02-22T05:28:17;100585.34;;;4.58;75.52
78313;BME280;67568;47.438;21.408;2023-02-22T05:30:44;100585.91;;;4.60;75.52
78313;BME280;67568;47.438;21.408;2023-02-22T05:33:11;100589.47;;;4.60;75.24
78313;BME280;67568;47.438;21.408;2023-02-22T05:35:38;100591.47;;;4.65;74.98
78313;BME280;67568;47.438;21.408;2023-02-22T05:38:05;100598.59;;;4.66;75.04
78313;BME280;67568;47.438;21.408;2023-02-22T05:40:32;100596.44;;;4.68;74.61
78313;BME280;67568;47.438;21.408;2023-02-22T05:42:59;100596.53;;;4.51;75.20
78313;BME280;67568;47.438;21.408;2023-02-22T05:45:26;100600.78;;;4.64;74.03
78313;BME280;67568;47.438;21.408;2023-02-22T05:47:54;100600.53;;;4.65;73.95
78313;BME280;67568;47.438;21.408;2023-02-22T05:50:21;100609.78;;;4.59;74.76
78313;BME280;67568;47.438;21.408;2023-02-22T05:52:47;100620.25;;;4.62;74.06
78313;BME280;67568;47.438;21.408;2023-02-22T05:55:17;100623.88;;;4.68;73.66
78313;BME280;67568;47.438;21.408;2023-02-22T05:57:44;100625.28;;;4.70;73.71
78313;BME280;67568;47.438;21.408;2023-02-22T06:00:26;100624.31;;;4.82;73.40
78313;BME280;67568;47.438;21.408;2023-02-22T06:02:55;100631.91;;;4.96;72.57
78313;BME280;67568;47.438;21.408;2023-02-22T06:05:21;100643.00;;;5.07;72.61
78313;BME280;67568;47.438;21.408;2023-02-22T06:07:48;100644.13;;;5.11;72.92
78313;BME280;67568;47.438;21.408;2023-02-22T06:10:15;100647.03;;;4.99;72.78
78313;BME280;67568;47.438;21.408;2023-02-22T06:12:42;100648.19;;;5.30;72.30
78313;BME280;67568;47.438;21.408;2023-02-22T06:15:09;100657.44;;;5.51;72.44
78313;BME280;67568;47.438;21.408;2023-02-22T06:17:42;100663.50;;;5.53;71.61
78313;BME280;67568;47.438;21.408;2023-02-22T06:20:13;100652.09;;;5.39;72.18
78313;BME280;67568;47.438;21.408;2023-02-22T06:22:42;100658.75;;;5.44;72.10
78313;BME280;67568;47.438;21.408;2023-02-22T06:25:13;100659.00;;;5.42;71.94
78313;BME280;67568;47.438;21.408;2023-02-22T06:27:40;100669.00;;;5.53;72.14
78313;BME280;67568;47.438;21.408;2023-02-22T06:30:09;100671.16;;;5.78;71.60
78313;BME280;67568;47.438;21.408;2023-02-22T06:32:38;100681.75;;;5.97;70.88
78313;BME280;67568;47.438;21.408;2023-02-22T06:35:05;100688.56;;;6.21;70.10
78313;BME280;67568;47.438;21.408;2023-02-22T06:37:32;100680.84;;;6.18;70.01
78313;BME280;67568;47.438;21.408;2023-02-22T06:39:59;100688.59;;;6.26;69.05
78313;BME280;67568;47.438;21.408;2023-02-22T06:42:31;100692.91;;;6.55;68.02
78313;BME280;67568;47.438;21.408;2023-02-22T06:44:58;100702.34;;;6.69;68.57
78313;BME280;67568;47.438;21.408;2023-02-22T06:47:25;100703.78;;;6.87;69.18
78313;BME280;67568;47.438;21.408;2023-02-22T06:49:57;100698.22;;;6.76;67.73
78313;BME280;67568;47.438;21.408;2023-02-22T06:52:26;100702.97;;;6.91;67.76
78313;BME280;67568;47.438;21.408;2023-02-22T06:54:53;100704.84;;;6.86;66.22
78313;BME280;67568;47.438;21.408;2023-02-22T06:57:22;100704.56;;;6.82;66.62
78313;BME280;67568;47.438;21.408;2023-02-22T06:59:49;100707.66;;;6.96;67.49
78313;BME280;67568;47.438;21.408;2023-02-22T07:02:16;100706.59;;;7.02;66.99
78313;BME280;67568;47.438;21.408;2023-02-22T07:04:44;100708.28;;;7.13;67.39
78313;BME280;67568;47.438;21.408;2023-02-22T07:07:10;100712.72;;;7.19;66.25
78313;BME280;67568;47.438;21.408;2023-02-22T07:09:40;100714.16;;;7.48;64.39
78313;BME280;67568;47.438;21.408;2023-02-22T07:12:07;100708.34;;;7.39;65.42
78313;BME280;67568;47.438;21.408;2023-02-22T07:14:33;100708.94;;;7.61;66.71
78313;BME280;67568;47.438;21.408;2023-02-22T07:17:00;100702.38;;;8.08;61.91
78313;BME280;67568;47.438;21.408;2023-02-22T07:19:26;100713.13;;;8.46;59.48
78313;BME280;67568;47.438;21.408;2023-02-22T07:21:53;100706.06;;;8.94;60.10
78313;BME280;67568;47.438;21.408;2023-02-22T07:24:20;100708.03;;;9.38;57.54
78313;BME280;67568;47.438;21.408;2023-02-22T07:26:46;100715.31;;;9.74;55.74
78313;BME280;67568;47.438;21.408;2023-02-22T07:29:13;100709.03;;;10.31;56.52
78313;BME280;67568;47.438;21.408;2023-02-22T07:31:40;100718.41;;;10.65;54.16
78313;BME280;67568;47.438;21.408;2023-02-22T07:34:09;100712.09;;;10.59;53.89
78313;BME280;67568;47.438;21.408;2023-02-22T07:36:36;100711.06;;;10.98;52.53
78313;BME280;67568;47.438;21.408;2023-02-22T07:39:03;100716.50;;;11.08;50.03
78313;BME280;67568;47.438;21.408;2023-02-22T07:41:29;100719.06;;;11.05;51.30
78313;BME280;67568;47.438;21.408;2023-02-22T07:43:56;100725.41;;;11.48;50.77
78313;BME280;67568;47.438;21.408;2023-02-22T07:46:23;100721.19;;;11.32;50.83
78313;BME280;67568;47.438;21.408;2023-02-22T07:48:49;100729.06;;;11.43;50.48
78313;BME280;67568;47.438;21.408;2023-02-22T07:51:16;100732.28;;;11.32;50.72
78313;BME280;67568;47.438;21.408;2023-02-22T07:53:43;100727.81;;;11.12;50.39
78313;BME280;67568;47.438;21.408;2023-02-22T07:56:10;100728.75;;;10.25;50.59
78313;BME280;67568;47.438;21.408;2023-02-22T07:58:42;100727.47;;;10.07;52.55
78313;BME280;67568;47.438;21.408;2023-02-22T08:01:09;100725.59;;;9.68;52.66
78313;BME280;67568;47.438;21.408;2023-02-22T08:03:35;100728.03;;;9.25;53.79
78313;BME280;67568;47.438;21.408;2023-02-22T08:06:04;100719.25;;;9.08;53.21
78313;BME280;67568;47.438;21.408;2023-02-22T08:08:31;100733.78;;;8.69;54.36
78313;BME280;67568;47.438;21.408;2023-02-22T08:10:58;100719.47;;;8.46;54.43
78313;BME280;67568;47.438;21.408;2023-02-22T08:13:25;100716.69;;;8.41;53.71
78313;BME280;67568;47.438;21.408;2023-02-22T08:15:55;100721.91;;;8.22;54.39
78313;BME280;67568;47.438;21.408;2023-02-22T08:18:26;100718.34;;;8.17;55.09
78313;BME280;67568;47.438;21.408;2023-02-22T08:20:53;100730.50;;;8.16;55.00
78313;BME280;67568;47.438;21.408;2023-02-22T08:23:22;100720.56;;;8.20;56.65
78313;BME280;67568;47.438;21.408;2023-02-22T08:25:51;100726.63;;;8.27;54.57
78313;BME280;67568;47.438;21.408;2023-02-22T08:28:23;100719.72;;;8.29;55.75
78313;BME280;67568;47.438;21.408;2023-02-22T08:30:50;100731.63;;;8.40;56.97
78313;BME280;67568;47.438;21.408;2023-02-22T08:33:17;100718.34;;;8.32;54.94
78313;BME280;67568;47.438;21.408;2023-02-22T08:35:45;100721.66;;;8.44;55.48
78313;BME280;67568;47.438;21.408;2023-02-22T08:38:38;100723.59;;;8.49;53.42
78313;BME280;67568;47.438;21.408;2023-02-22T08:41:05;100726.56;;;8.68;54.78
78313;BME280;67568;47.438;21.408;2023-02-22T08:43:31;100734.84;;;8.68;53.44
78313;BME280;67568;47.438;21.408;2023-02-22T08:45:58;100733.50;;;8.65;56.08
78313;BME280;67568;47.438;21.408;2023-02-22T08:48:25;100733.78;;;8.74;54.52
78313;BME280;67568;47.438;21.408;2023-02-22T08:50:52;100732.34;;;8.87;56.03
78313;BME280;67568;47.438;21.408;2023-02-22T08:53:18;100738.97;;;8.86;54.29
78313;BME280;67568;47.438;21.408;2023-02-22T08:55:54;100742.25;;;8.88;54.01
78313;BME280;67568;47.438;21.408;2023-02-22T08:58:24;100750.91;;;8.66;54.08
78313;BME280;67568;47.438;21.408;2023-02-22T09:00:51;100747.28;;;8.81;54.63
78313;BME280;67568;47.438;21.408;2023-02-22T09:03:18;100748.34;;;8.95;54.87
78313;BME280;67568;47.438;21.408;2023-02-22T09:05:44;100744.34;;;9.21;55.36
78313;BME280;67568;47.438;21.408;2023-02-22T09:08:11;100744.63;;;9.25;53.15
78313;BME280;67568;47.438;21.408;2023-02-22T09:10:38;100748.69;;;9.43;51.50
78313;BME280;67568;47.438;21.408;2023-02-22T09:13:05;100744.53;;;9.45;51.64
78313;BME280;67568;47.438;21.408;2023-02-22T09:15:32;100745.69;;;9.34;49.05
78313;BME280;67568;47.438;21.408;2023-02-22T09:18:00;100753.84;;;9.60;49.25
78313;BME280;67568;47.438;21.408;2023-02-22T09:20:28;100747.75;;;9.63;48.69
78313;BME280;67568;47.438;21.408;2023-02-22T09:22:55;100752.13;;;9.69;49.48
78313;BME280;67568;47.438;21.408;2023-02-22T09:25:22;100752.41;;;9.67;48.35
78313;BME280;67568;47.438;21.408;2023-02-22T09:27:50;100751.19;;;9.39;48.85
78313;BME280;67568;47.438;21.408;2023-02-22T09:30:22;100749.00;;;9.36;48.75
78313;BME280;67568;47.438;21.408;2023-02-22T09:32:55;100754.78;;;9.40;48.66
78313;BME280;67568;47.438;21.408;2023-02-22T09:38:21;100752.28;;;9.38;47.62
78313;BME280;67568;47.438;21.408;2023-02-22T09:41:19;100751.94;;;9.55;46.29
78313;BME280;67568;47.438;21.408;2023-02-22T09:46:45;100748.66;;;9.87;46.08
78313;BME280;67568;47.438;21.408;2023-02-22T09:49:20;100746.19;;;9.86;45.85
78313;BME280;67568;47.438;21.408;2023-02-22T09:52:11;100749.13;;;10.05;46.29
78313;BME280;67568;47.438;21.408;2023-02-22T09:54:43;100753.56;;;10.01;45.11
78313;BME280;67568;47.438;21.408;2023-02-22T09:57:17;100751.50;;;9.82;45.33
78313;BME280;67568;47.438;21.408;2023-02-22T09:59:56;100752.41;;;10.07;44.95
78313;BME280;67568;47.438;21.408;2023-02-22T10:02:33;100745.56;;;9.99;45.65
78313;BME280;67568;47.438;21.408;2023-02-22T10:05:23;100757.63;;;9.74;45.05
78313;BME280;67568;47.438;21.408;2023-02-22T10:07:55;100747.00;;;9.42;45.69
78313;BME280;67568;47.438;21.408;2023-02-22T10:10:27;100757.78;;;9.49;45.92
78313;BME280;67568;47.438;21.408;2023-02-22T10:13:27;100750.84;;;9.56;45.96
78313;BME280;67568;47.438;21.408;2023-02-22T10:16:25;100739.47;;;9.58;46.49
78313;BME280;67568;47.438;21.408;2023-02-22T10:25:01;100747.84;;;10.55;44.34
78313;BME280;67568;47.438;21.408;2023-02-22T10:27:36;100745.72;;;11.43;41.37
78313;BME280;67568;47.438;21.408;2023-02-22T10:30:16;100745.91;;;11.90;41.31
78313;BME280;67568;47.438;21.408;2023-02-22T10:35:44;100733.09;;;13.28;37.65
78313;BME280;67568;47.438;21.408;2023-02-22T10:38:24;100750.38;;;13.67;35.59
78313;BME280;67568;47.438;21.408;2023-02-22T10:43:39;100740.50;;;13.61;37.66
78313;BME280;67568;47.438;21.408;2023-02-22T10:46:11;100733.94;;;13.15;36.80
78313;BME280;67568;47.438;21.408;2023-02-22T10:48:41;100727.41;;;13.20;36.31
78313;BME280;67568;47.438;21.408;2023-02-22T10:51:10;100719.69;;;13.17;37.39
78313;BME280;67568;47.438;21.408;2023-02-22T10:53:37;100727.13;;;13.08;37.10
78313;BME280;67568;47.438;21.408;2023-02-22T10:56:11;100710.81;;;12.59;37.18
78313;BME280;67568;47.438;21.408;2023-02-22T10:58:58;100711.88;;;13.19;37.24
78313;BME280;67568;47.438;21.408;2023-02-22T11:04:15;100718.00;;;13.93;36.92
78313;BME280;67568;47.438;21.408;2023-02-22T11:06:44;100716.56;;;13.46;37.02
78313;BME280;67568;47.438;21.408;2023-02-22T11:09:22;100729.91;;;14.53;35.61
78313;BME280;67568;47.438;21.408;2023-02-22T11:12:19;100708.28;;;13.04;36.17
78313;BME280;67568;47.438;21.408;2023-02-22T11:14:46;100709.53;;;13.62;35.76
78313;BME280;67568;47.438;21.408;2023-02-22T11:17:18;100714.50;;;14.95;33.74
78313;BME280;67568;47.438;21.408;2023-02-22T11:19:48;100712.88;;;13.87;35.18
78313;BME280;67568;47.438;21.408;2023-02-22T11:22:25;100709.91;;;12.92;37.63
78313;BME280;67568;47.438;21.408;2023-02-22T11:25:03;100705.78;;;12.62;38.03
78313;BME280;67568;47.438;21.408;2023-02-22T11:30:26;100702.38;;;11.85;38.66
78313;BME280;67568;47.438;21.408;2023-02-22T11:35:57;100705.03;;;12.42;38.70
78313;BME280;67568;47.438;21.408;2023-02-22T11:38:26;100708.69;;;12.24;38.33
78313;BME280;67568;47.438;21.408;2023-02-22T11:41:19;100701.06;;;12.15;38.51
78313;BME280;67568;47.438;21.408;2023-02-22T11:43:48;100708.16;;;11.89;39.78
78313;BME280;67568;47.438;21.408;2023-02-22T11:49:08;100698.63;;;11.76;39.65
78313;BME280;67568;47.438;21.408;2023-02-22T11:51:55;100696.75;;;11.71;41.54
78313;BME280;67568;47.438;21.408;2023-02-22T11:56:51;100687.94;;;11.83;39.37
78313;BME280;67568;47.438;21.408;2023-02-22T12:04:55;100682.13;;;12.18;40.11
78313;BME280;67568;47.438;21.408;2023-02-22T12:13:24;100674.88;;;12.49;39.33
78313;BME280;67568;47.438;21.408;2023-02-22T12:18:34;100677.31;;;12.23;39.47
78313;BME280;67568;47.438;21.408;2023-02-22T12:21:15;100665.25;;;12.14;40.63
78313;BME280;67568;47.438;21.408;2023-02-22T12:23:53;100663.13;;;11.92;39.60
78313;BME280;67568;47.438;21.408;2023-02-22T12:26:29;100669.38;;;12.17;40.53
78313;BME280;67568;47.438;21.408;2023-02-22T12:29:33;100666.47;;;12.08;40.05
78313;BME280;67568;47.438;21.408;2023-02-22T12:32:18;100654.78;;;12.25;40.45
78313;BME280;67568;47.438;21.408;2023-02-22T12:40:33;100658.41;;;12.80;39.73
78313;BME280;67568;47.438;21.408;2023-02-22T12:43:07;100654.22;;;12.55;39.36
78313;BME280;67568;47.438;21.408;2023-02-22T12:45:50;100652.16;;;12.61;39.50
78313;BME280;67568;47.438;21.408;2023-02-22T12:59:20;100634.91;;;12.31;40.02
78313;BME280;67568;47.438;21.408;2023-02-22T13:01:55;100638.63;;;12.41;40.88
78313;BME280;67568;47.438;21.408;2023-02-22T13:04:24;100640.94;;;12.06;40.59
78313;BME280;67568;47.438;21.408;2023-02-22T13:06:58;100648.28;;;12.15;41.60
78313;BME280;67568;47.438;21.408;2023-02-22T13:20:29;100647.47;;;12.29;42.36
78313;BME280;67568;47.438;21.408;2023-02-22T13:23:09;100648.31;;;12.43;41.58
78313;BME280;67568;47.438;21.408;2023-02-22T13:25:47;100651.72;;;12.68;41.13
78313;BME280;67568;47.438;21.408;2023-02-22T13:37:13;100648.84;;;12.45;40.40
78313;BME280;67568;47.438;21.408;2023-02-22T13:47:44;100646.78;;;12.51;41.55
78313;BME280;67568;47.438;21.408;2023-02-22T13:50:59;100644.94;;;12.60;41.69
78313;BME280;67568;47.438;21.408;2023-02-22T13:53:10;100646.06;;;12.45;41.84
78313;BME280;67568;47.438;21.408;2023-02-22T13:55:40;100631.94;;;12.28;41.32
78313;BME280;67568;47.438;21.408;2023-02-22T13:58:09;100638.03;;;12.30;41.25
78313;BME280;67568;47.438;21.408;2023-02-22T14:05:56;100633.25;;;12.17;41.76
78313;BME280;67568;47.438;21.408;2023-02-22T14:10:59;100636.00;;;11.84;42.92
78313;BME280;67568;47.438;21.408;2023-02-22T14:13:30;100630.88;;;11.58;43.24
78313;BME280;67568;47.438;21.408;2023-02-22T14:21:15;100630.50;;;11.65;43.17
78313;BME280;67568;47.438;21.408;2023-02-22T14:23:51;100630.88;;;11.58;43.46
78313;BME280;67568;47.438;21.408;2023-02-22T14:26:28;100637.44;;;11.48;43.69
78313;BME280;67568;47.438;21.408;2023-02-22T14:34:14;100636.31;;;11.31;44.19
78313;BME280;67568;47.438;21.408;2023-02-22T14:39:26;100639.25;;;11.39;44.65
78313;BME280;67568;47.438;21.408;2023-02-22T14:45:02;100639.00;;;11.55;44.90
78313;BME280;67568;47.438;21.408;2023-02-22T14:50:08;100632.47;;;11.26;44.07
78313;BME280;67568;47.438;21.408;2023-02-22T14:52:41;100624.09;;;11.13;44.32
78313;BME280;67568;47.438;21.408;2023-02-22T14:55:22;100622.81;;;11.05;45.26
78313;BME280;67568;47.438;21.408;2023-02-22T15:00:23;100627.34;;;10.77;45.78
78313;BME280;67568;47.438;21.408;2023-02-22T15:02:51;100638.22;;;10.73;45.91
78313;BME280;67568;47.438;21.408;2023-02-22T15:05:19;100630.13;;;10.77;46.13
78313;BME280;67568;47.438;21.408;2023-02-22T15:07:54;100629.34;;;10.71;46.61
78313;BME280;67568;47.438;21.408;2023-02-22T15:12:58;100628.88;;;10.64;46.68
78313;BME280;67568;47.438;21.408;2023-02-22T15:15:29;100631.56;;;10.50;46.90
78313;BME280;67568;47.438;21.408;2023-02-22T15:17:56;100631.31;;;10.47;47.25
78313;BME280;67568;47.438;21.408;2023-02-22T15:20:24;100627.47;;;10.43;47.52
78313;BME280;67568;47.438;21.408;2023-02-22T15:22:57;100625.59;;;10.38;47.42
78313;BME280;67568;47.438;21.408;2023-02-22T15:25:27;100625.34;;;10.34;47.53
78313;BME280;67568;47.438;21.408;2023-02-22T15:27:59;100628.72;;;10.26;48.52
78313;BME280;67568;47.438;21.408;2023-02-22T15:30:29;100624.09;;;10.22;47.90
78313;BME280;67568;47.438;21.408;2023-02-22T15:33:27;100625.53;;;10.14;47.62
78313;BME280;67568;47.438;21.408;2023-02-22T15:35:56;100622.34;;;10.02;49.46
78313;BME280;67568;47.438;21.408;2023-02-22T15:38:29;100620.44;;;9.97;48.70
78313;BME280;67568;47.438;21.408;2023-02-22T15:41:04;100632.41;;;9.87;48.84
78313;BME280;67568;47.438;21.408;2023-02-22T15:43:31;100631.59;;;9.87;49.21